Time;durP1;ratioP1;P1;durP2;ratioP2;P2;SDS_P1;SDS_P2;PMS_P1;PMS_P2;Temp;Humidity;BMP_temperature;BMP_pressure;BME280_temperature;BME280_humidity;BME280_pressure;Samples;Min_cycle;Max_cycle;Signal;HPM_P1;HPM_P2
2023/02/28 00:00:34;;;;;;;8.27;6.60;;;3.10;99.90;;;;;;4990470;28;20046;-81
2023/02/28 00:03:00;;;;;;;9.77;5.80;;;3.00;99.90;;;;;;4977737;28;20037;-81
2023/02/28 00:05:27;;;;;;;8.50;6.40;;;3.00;99.90;;;;;;4985554;28;20039;-81
2023/02/28 00:07:53;;;;;;;9.37;6.40;;;2.90;99.90;;;;;;4981676;28;20034;-81
2023/02/28 00:10:27;;;;;;;9.43;7.13;;;2.90;99.90;;;;;;5005549;28;20030;-81
2023/02/28 00:12:54;;;;;;;7.70;6.53;;;2.90;99.90;;;;;;4982587;28;20026;-81
2023/02/28 00:15:22;;;;;;;7.53;6.33;;;2.90;99.90;;;;;;4985487;28;20029;-81
2023/02/28 00:17:48;;;;;;;8.90;6.90;;;2.90;99.90;;;;;;4992241;28;20029;-81
2023/02/28 00:20:15;;;;;;;9.80;6.67;;;2.80;99.90;;;;;;4984061;28;20046;-81
2023/02/28 00:22:43;;;;;;;9.70;6.83;;;2.80;99.90;;;;;;4983129;28;20054;-81
2023/02/28 00:25:10;;;;;;;7.30;6.07;;;2.80;99.90;;;;;;4982500;28;20030;-81
2023/02/28 00:27:36;;;;;;;9.33;7.50;;;2.80;99.90;;;;;;4990786;28;20041;-81
2023/02/28 00:30:03;;;;;;;12.17;7.30;;;2.80;99.90;;;;;;4999448;28;20034;-81
2023/02/28 00:32:29;;;;;;;9.03;7.13;;;2.80;99.90;;;;;;5024183;28;20056;-81
2023/02/28 00:34:56;;;;;;;9.47;6.93;;;2.70;99.90;;;;;;4993895;28;20030;-81
2023/02/28 00:37:22;;;;;;;8.27;6.77;;;2.70;99.90;;;;;;5011682;28;20054;-81
2023/02/28 00:39:48;;;;;;;10.00;7.30;;;2.70;99.90;;;;;;4987234;28;20065;-81
2023/02/28 00:42:14;;;;;;;7.97;6.80;;;2.70;99.90;;;;;;4992709;28;20047;-81
2023/02/28 00:44:40;;;;;;;9.47;7.27;;;2.60;99.90;;;;;;4992801;28;20046;-81
2023/02/28 00:47:06;;;;;;;8.73;5.93;;;2.60;99.90;;;;;;4975972;28;20031;-81
2023/02/28 00:49:32;;;;;;;12.53;7.50;;;2.60;99.90;;;;;;4979578;28;20045;-81
2023/02/28 00:51:58;;;;;;;7.37;6.57;;;2.60;99.90;;;;;;4981667;28;20047;-81
2023/02/28 00:54:24;;;;;;;11.87;7.07;;;2.60;99.90;;;;;;4984438;28;20468;-81
2023/02/28 00:56:50;;;;;;;8.13;6.50;;;2.50;99.90;;;;;;5023409;28;20030;-81
2023/02/28 00:59:17;;;;;;;7.30;5.67;;;2.50;99.90;;;;;;4988853;28;21395;-80
2023/02/28 01:01:44;;;;;;;9.43;7.70;;;2.40;99.90;;;;;;4986688;28;20050;-81
2023/02/28 01:04:10;;;;;;;10.33;7.93;;;2.40;99.90;;;;;;5007856;28;20042;-81
2023/02/28 01:06:36;;;;;;;8.50;7.50;;;2.50;99.90;;;;;;4988335;28;20053;-80
2023/02/28 01:09:03;;;;;;;5.40;4.70;;;2.40;99.90;;;;;;4990461;28;20061;-81
2023/02/28 01:11:29;;;;;;;13.13;7.80;;;2.30;99.90;;;;;;4992255;28;20476;-81
2023/02/28 01:13:55;;;;;;;10.17;7.70;;;2.30;99.90;;;;;;4989421;28;20053;-80
2023/02/28 01:16:21;;;;;;;10.27;7.40;;;2.30;99.90;;;;;;4991618;28;20031;-81
2023/02/28 01:18:47;;;;;;;12.07;7.73;;;2.30;99.90;;;;;;4982110;28;20038;-81
2023/02/28 01:21:15;;;;;;;7.90;7.07;;;2.30;99.90;;;;;;4977866;28;20395;-81
2023/02/28 01:23:42;;;;;;;12.80;8.47;;;2.30;99.90;;;;;;4974468;28;20031;-81
2023/02/28 01:26:15;;;;;;;8.80;6.90;;;2.30;99.90;;;;;;4972752;28;20408;-81
2023/02/28 01:28:41;;;;;;;13.50;8.13;;;2.30;99.90;;;;;;4993811;28;20026;-81
2023/02/28 01:31:08;;;;;;;13.50;8.23;;;2.30;99.90;;;;;;4989691;28;20043;-80
2023/02/28 01:33:34;;;;;;;11.83;7.43;;;2.20;99.90;;;;;;4986876;28;20030;-80
2023/02/28 01:36:01;;;;;;;11.80;8.43;;;2.20;99.90;;;;;;5017105;28;20049;-81
2023/02/28 01:38:27;;;;;;;9.53;8.03;;;2.20;99.90;;;;;;4981975;28;20463;-81
2023/02/28 01:40:53;;;;;;;11.83;8.20;;;2.20;99.90;;;;;;4979726;28;20035;-81
2023/02/28 01:43:24;;;;;;;9.87;8.23;;;2.10;99.90;;;;;;4995930;28;20038;-81
2023/02/28 01:45:52;;;;;;;13.30;8.95;;;2.20;99.90;;;;;;4996374;28;20030;-81
2023/02/28 01:48:18;;;;;;;10.47;8.47;;;2.20;99.90;;;;;;4979760;28;20050;-80
2023/02/28 01:50:45;;;;;;;11.27;9.07;;;2.10;99.90;;;;;;5007089;28;20046;-81
2023/02/28 01:53:13;;;;;;;9.90;8.37;;;2.10;99.90;;;;;;5023999;28;20506;-80
2023/02/28 01:55:40;;;;;;;10.80;9.47;;;2.10;99.90;;;;;;5011701;28;20023;-80
2023/02/28 01:58:06;;;;;;;11.90;9.57;;;2.10;99.90;;;;;;5026183;28;20502;-80
2023/02/28 02:00:32;;;;;;;12.47;9.80;;;2.00;99.90;;;;;;5012914;28;20034;-81
2023/02/28 02:03:00;;;;;;;12.97;9.27;;;2.00;99.90;;;;;;5025070;28;20069;-80
2023/02/28 02:05:30;;;;;;;12.07;8.83;;;2.00;99.90;;;;;;5015922;28;20038;-80
2023/02/28 02:08:07;;;;;;;16.20;8.77;;;2.00;99.90;;;;;;5024710;28;20034;-80
2023/02/28 02:10:49;;;;;;;14.60;9.67;;;2.00;99.90;;;;;;5008054;28;20387;-80
2023/02/28 02:13:52;;;;;;;15.45;10.07;;;1.90;99.90;;;;;;5015730;28;20030;-81
2023/02/28 02:16:30;;;;;;;13.13;9.80;;;1.90;99.90;;;;;;4996031;28;20407;-80
2023/02/28 02:19:24;;;;;;;13.93;9.43;;;2.00;99.90;;;;;;4995069;28;20035;-80
2023/02/28 02:22:16;;;;;;;13.80;9.73;;;2.00;99.90;;;;;;4985013;28;20042;-81
2023/02/28 02:25:05;;;;;;;11.40;10.20;;;2.00;99.90;;;;;;4992025;28;20050;-81
2023/02/28 02:27:49;;;;;;;12.87;9.40;;;2.00;99.90;;;;;;4991674;28;20039;-81
2023/02/28 02:30:21;;;;;;;14.37;9.67;;;2.00;99.90;;;;;;4989290;28;20419;-80
2023/02/28 02:33:19;;;;;;;13.73;8.77;;;1.90;99.90;;;;;;5011940;28;20046;-81
2023/02/28 02:36:07;;;;;;;13.37;9.43;;;1.80;99.90;;;;;;4971093;28;20400;-81
2023/02/28 02:38:40;;;;;;;11.87;10.30;;;1.80;99.90;;;;;;4972234;28;20090;-81
2023/02/28 02:41:46;;;;;;;14.93;9.50;;;1.90;99.90;;;;;;4942193;28;20459;-81
2023/02/28 02:44:36;;;;;;;12.33;10.00;;;1.90;99.90;;;;;;4952720;28;20046;-80
2023/02/28 02:47:08;;;;;;;15.40;10.60;;;1.80;99.90;;;;;;4972743;28;20039;-80
2023/02/28 02:49:35;;;;;;;14.73;10.70;;;1.80;99.90;;;;;;4973802;28;20367;-81
2023/02/28 02:52:09;;;;;;;13.47;10.50;;;1.80;99.90;;;;;;4967012;28;20528;-81
2023/02/28 02:54:37;;;;;;;13.03;9.73;;;1.70;99.90;;;;;;4966749;28;20043;-81
2023/02/28 02:57:09;;;;;;;14.10;10.83;;;1.70;99.90;;;;;;4966150;28;20393;-80
2023/02/28 02:59:36;;;;;;;12.50;10.70;;;1.70;99.90;;;;;;4980549;28;20051;-80
2023/02/28 03:02:04;;;;;;;14.37;10.47;;;1.70;99.90;;;;;;4962587;28;20051;-80
2023/02/28 03:04:37;;;;;;;16.33;10.30;;;1.70;99.90;;;;;;4950155;28;20039;-81
2023/02/28 03:07:03;;;;;;;14.77;11.37;;;1.60;99.90;;;;;;4932255;28;20043;-80
2023/02/28 03:09:32;;;;;;;14.10;10.43;;;1.60;99.90;;;;;;4955579;28;20037;-80
2023/02/28 03:11:58;;;;;;;16.87;11.13;;;1.50;99.90;;;;;;4976909;28;20041;-81
2023/02/28 03:14:37;;;;;;;16.20;11.07;;;1.50;99.90;;;;;;5034308;28;20034;-80
2023/02/28 03:17:21;;;;;;;14.93;10.67;;;1.50;99.90;;;;;;5043230;28;20102;-80
2023/02/28 03:20:09;;;;;;;17.83;10.67;;;1.60;99.90;;;;;;5012619;28;20034;-80
2023/02/28 03:22:50;;;;;;;16.23;9.87;;;1.50;99.90;;;;;;5007701;28;20108;-80
2023/02/28 03:25:54;;;;;;;15.80;9.63;;;1.50;99.90;;;;;;4997248;28;20045;-81
2023/02/28 03:28:39;;;;;;;15.87;11.20;;;1.40;99.90;;;;;;5012881;28;20041;-80
2023/02/28 03:31:30;;;;;;;16.30;10.50;;;1.40;99.90;;;;;;5006148;28;20034;-80
2023/02/28 03:34:02;;;;;;;18.83;9.35;;;1.30;99.90;;;;;;5042061;28;20402;-80
2023/02/28 03:36:29;;;;;;;12.50;9.03;;;1.30;99.90;;;;;;5007943;28;20030;-80
2023/02/28 03:39:06;;;;;;;13.80;8.27;;;1.30;99.90;;;;;;5001957;28;20034;-81
2023/02/28 03:41:35;;;;;;;12.33;7.60;;;1.30;99.90;;;;;;5017326;28;20047;-80
2023/02/28 03:44:05;;;;;;;12.20;9.67;;;1.30;99.90;;;;;;5013340;28;20038;-80
2023/02/28 03:46:33;;;;;;;13.60;8.70;;;1.30;99.90;;;;;;5042666;28;20045;-81
2023/02/28 03:49:20;;;;;;;12.93;10.87;;;1.20;99.90;;;;;;5025584;28;20411;-81
2023/02/28 03:51:46;;;;;;;11.20;8.63;;;1.20;99.90;;;;;;5017620;28;20026;-80
2023/02/28 03:54:15;;;;;;;11.37;8.60;;;1.10;99.90;;;;;;5009062;28;20036;-80
2023/02/28 03:57:03;;;;;;;16.87;12.00;;;1.10;99.90;;;;;;5035480;28;20034;-81
2023/02/28 03:59:43;;;;;;;9.97;7.10;;;1.20;99.90;;;;;;5013876;28;20026;-80
2023/02/28 04:02:10;;;;;;;12.68;9.32;;;1.10;99.90;;;;;;5033097;28;20061;-80
2023/02/28 04:04:36;;;;;;;7.37;6.40;;;1.10;99.90;;;;;;5027702;28;20578;-80
2023/02/28 04:07:04;;;;;;;14.87;10.77;;;1.00;99.90;;;;;;5008556;28;20027;-81
2023/02/28 04:09:30;;;;;;;15.90;11.20;;;1.10;99.90;;;;;;5025496;28;20383;-80
2023/02/28 04:11:56;;;;;;;18.70;11.33;;;1.10;99.90;;;;;;4994216;28;20038;-81
2023/02/28 04:14:23;;;;;;;17.70;11.00;;;1.10;99.90;;;;;;4998377;28;20030;-81
2023/02/28 04:16:50;;;;;;;17.67;10.53;;;1.10;99.90;;;;;;5033472;28;20033;-80
2023/02/28 04:19:16;;;;;;;8.10;6.90;;;1.10;99.90;;;;;;5013549;28;20463;-80
2023/02/28 04:21:46;;;;;;;19.07;11.30;;;1.10;99.90;;;;;;5002301;28;20057;-80
2023/02/28 04:24:14;;;;;;;17.50;11.00;;;1.10;99.90;;;;;;5005424;28;20034;-80
2023/02/28 04:26:43;;;;;;;16.53;10.40;;;1.00;99.90;;;;;;5004932;28;20053;-81
2023/02/28 04:29:09;;;;;;;16.10;10.60;;;1.00;99.90;;;;;;5010414;28;20034;-80
2023/02/28 04:31:36;;;;;;;15.20;10.50;;;1.00;99.90;;;;;;5012180;28;20048;-79
2023/02/28 04:34:02;;;;;;;15.73;11.53;;;1.00;99.90;;;;;;5001020;28;20407;-79
2023/02/28 04:36:28;;;;;;;10.23;6.80;;;1.00;99.90;;;;;;5010131;28;20037;-79
2023/02/28 04:38:54;;;;;;;15.97;11.33;;;1.00;99.90;;;;;;5045093;28;20037;-79
2023/02/28 04:41:22;;;;;;;17.20;9.83;;;1.00;99.90;;;;;;5008558;28;20479;-78
2023/02/28 04:43:48;;;;;;;17.80;11.37;;;1.00;99.90;;;;;;5015540;28;20426;-79
2023/02/28 04:46:15;;;;;;;12.10;8.30;;;1.00;99.90;;;;;;5013021;28;20045;-79
2023/02/28 04:48:41;;;;;;;19.43;10.20;;;1.00;99.90;;;;;;5022201;28;20049;-79
2023/02/28 04:51:09;;;;;;;14.60;9.87;;;0.90;99.90;;;;;;5008926;28;20034;-80
2023/02/28 04:53:37;;;;;;;14.60;11.47;;;0.90;99.90;;;;;;4991589;28;20412;-81
2023/02/28 04:56:04;;;;;;;12.57;9.90;;;0.90;99.90;;;;;;5034688;28;20107;-81
2023/02/28 04:58:30;;;;;;;14.17;10.20;;;0.90;99.90;;;;;;5027388;28;20049;-82
2023/02/28 05:01:02;;;;;;;16.17;10.93;;;0.80;99.90;;;;;;5048208;28;20041;-82
2023/02/28 05:03:28;;;;;;;16.27;11.70;;;0.90;99.90;;;;;;5013952;28;20070;-82
2023/02/28 05:05:54;;;;;;;17.20;11.63;;;0.80;99.90;;;;;;5043505;28;20029;-82
2023/02/28 05:08:20;;;;;;;16.17;10.13;;;0.80;99.90;;;;;;5044565;28;20102;-82
2023/02/28 05:10:46;;;;;;;15.93;10.97;;;0.80;99.90;;;;;;5002547;28;20042;-82
2023/02/28 05:13:13;;;;;;;16.83;11.27;;;0.80;99.90;;;;;;4993197;28;20034;-83
2023/02/28 05:15:39;;;;;;;12.90;9.73;;;0.80;99.90;;;;;;5007273;28;20045;-83
2023/02/28 05:18:05;;;;;;;15.00;10.57;;;0.70;99.90;;;;;;5024526;28;20038;-82
2023/02/28 05:20:31;;;;;;;14.83;11.30;;;0.70;99.90;;;;;;5023830;28;20045;-82
2023/02/28 05:22:58;;;;;;;13.47;10.00;;;0.70;99.90;;;;;;5012519;28;20042;-82
2023/02/28 05:25:24;;;;;;;15.27;10.60;;;0.70;99.90;;;;;;5027141;28;20026;-83
2023/02/28 05:27:50;;;;;;;22.83;11.40;;;0.70;99.90;;;;;;5012663;28;20041;-82
2023/02/28 05:30:16;;;;;;;16.80;10.37;;;0.70;99.90;;;;;;5010396;28;20067;-82
2023/02/28 05:32:42;;;;;;;11.37;9.00;;;0.70;99.90;;;;;;5044466;28;20402;-83
2023/02/28 05:35:12;;;;;;;13.13;9.57;;;0.70;99.90;;;;;;5021813;28;20034;-83
2023/02/28 05:37:38;;;;;;;22.50;11.67;;;0.70;99.90;;;;;;4998144;28;20031;-82
2023/02/28 05:40:06;;;;;;;17.53;11.00;;;0.70;99.90;;;;;;4991965;28;20038;-82
2023/02/28 05:42:32;;;;;;;18.27;10.57;;;0.70;99.90;;;;;;4997069;28;20054;-82
2023/02/28 05:44:59;;;;;;;14.73;9.60;;;0.70;99.90;;;;;;5012259;28;20030;-82
2023/02/28 05:47:25;;;;;;;16.17;10.73;;;0.70;99.90;;;;;;5010879;28;20529;-83
2023/02/28 05:49:51;;;;;;;14.70;9.93;;;0.70;99.90;;;;;;5012431;28;20026;-82
2023/02/28 05:52:17;;;;;;;13.27;6.63;;;0.70;99.90;;;;;;4989483;28;20041;-82
2023/02/28 05:54:43;;;;;;;17.93;10.27;;;0.60;99.90;;;;;;4990136;28;20471;-83
2023/02/28 05:57:09;;;;;;;17.80;10.43;;;0.70;99.90;;;;;;4994992;28;20038;-83
2023/02/28 05:59:39;;;;;;;12.47;7.87;;;0.60;99.90;;;;;;5012131;28;20021;-82
2023/02/28 06:02:08;;;;;;;15.73;10.60;;;0.60;99.90;;;;;;5010675;28;20057;-82
2023/02/28 06:04:34;;;;;;;11.70;9.07;;;0.60;99.90;;;;;;5010706;28;20041;-82
2023/02/28 06:07:01;;;;;;;13.67;9.47;;;0.70;99.90;;;;;;4984129;28;20031;-82
2023/02/28 06:09:27;;;;;;;18.00;11.03;;;0.60;99.90;;;;;;4989557;28;20045;-82
2023/02/28 06:11:53;;;;;;;16.67;11.43;;;0.60;99.90;;;;;;5012256;28;20034;-82
2023/02/28 06:14:20;;;;;;;16.77;11.43;;;0.60;99.90;;;;;;5010633;28;20041;-82
2023/02/28 06:16:46;;;;;;;13.63;9.77;;;0.60;99.90;;;;;;5011918;28;20044;-82
2023/02/28 06:19:12;;;;;;;12.93;9.63;;;0.60;99.90;;;;;;5006283;28;21755;-83
2023/02/28 06:21:38;;;;;;;25.57;11.63;;;0.60;99.90;;;;;;4983793;28;20050;-83
2023/02/28 06:24:05;;;;;;;17.50;11.53;;;0.60;99.90;;;;;;4991273;28;20046;-82
2023/02/28 06:26:31;;;;;;;18.20;10.37;;;0.60;99.90;;;;;;4992029;28;20030;-82
2023/02/28 06:28:57;;;;;;;19.70;11.80;;;0.60;99.90;;;;;;5005339;28;20038;-82
2023/02/28 06:31:25;;;;;;;18.07;12.50;;;0.60;99.90;;;;;;5014106;28;20045;-83
2023/02/28 06:33:51;;;;;;;20.13;11.37;;;0.90;99.90;;;;;;4990815;28;20049;-82
2023/02/28 06:36:18;;;;;;;19.40;11.97;;;0.90;99.90;;;;;;4999066;28;20042;-82
2023/02/28 06:38:44;;;;;;;19.53;12.17;;;0.70;99.90;;;;;;4978365;28;20039;-84
2023/02/28 06:41:10;;;;;;;16.63;9.53;;;0.60;99.90;;;;;;4982594;28;20495;-79
2023/02/28 06:43:38;;;;;;;18.43;12.47;;;0.60;99.90;;;;;;4989047;28;20050;-79
2023/02/28 06:46:06;;;;;;;18.27;10.67;;;0.60;99.90;;;;;;4990680;28;20039;-79
2023/02/28 06:48:32;;;;;;;19.43;11.43;;;0.50;99.90;;;;;;5013752;28;20041;-79
2023/02/28 06:51:20;;;;;;;16.63;10.73;;;0.50;99.90;;;;;;5008107;28;20038;-79
2023/02/28 06:53:46;;;;;;;18.57;11.67;;;0.60;99.90;;;;;;5024350;28;20038;-79
2023/02/28 06:56:13;;;;;;;14.50;10.03;;;0.60;99.90;;;;;;5015203;28;20033;-78
2023/02/28 06:58:40;;;;;;;17.53;11.20;;;0.50;99.90;;;;;;5013739;28;20026;-79
2023/02/28 07:01:06;;;;;;;19.30;11.47;;;0.50;99.90;;;;;;5039077;28;20030;-79
2023/02/28 07:03:32;;;;;;;14.10;9.17;;;0.50;99.90;;;;;;5020030;28;20038;-79
2023/02/28 07:05:59;;;;;;;19.07;11.13;;;0.50;99.90;;;;;;5032394;28;20467;-79
2023/02/28 07:08:25;;;;;;;21.33;11.30;;;0.50;99.90;;;;;;5018936;28;20032;-79
2023/02/28 07:10:53;;;;;;;14.97;10.57;;;0.50;99.90;;;;;;5028240;28;20026;-79
2023/02/28 07:13:19;;;;;;;20.47;11.90;;;0.50;99.90;;;;;;5057302;28;20060;-79
2023/02/28 07:15:55;;;;;;;20.10;12.67;;;0.50;99.90;;;;;;5032449;28;20041;-80
2023/02/28 07:18:22;;;;;;;27.47;12.93;;;0.60;99.90;;;;;;5010621;28;20387;-79
2023/02/28 07:20:48;;;;;;;16.17;10.97;;;0.60;99.90;;;;;;5012330;28;20045;-79
2023/02/28 07:23:14;;;;;;;12.80;7.63;;;0.60;99.90;;;;;;5046312;28;20035;-78
2023/02/28 07:25:40;;;;;;;14.43;10.90;;;0.60;99.90;;;;;;5012962;28;20026;-79
2023/02/28 07:28:06;;;;;;;24.87;10.53;;;0.60;99.90;;;;;;5044151;28;20033;-88
2023/02/28 07:30:32;;;;;;;20.53;12.03;;;1.20;99.90;;;;;;5029222;28;20035;-85
2023/02/28 07:32:58;;;;;;;21.70;12.33;;;1.30;99.90;;;;;;5029789;28;20018;-86
2023/02/28 07:35:24;;;;;;;7.40;6.67;;;1.60;99.90;;;;;;5028889;28;20057;-86
2023/02/28 07:37:51;;;;;;;19.00;11.27;;;1.70;99.90;;;;;;5029490;28;20026;-89
2023/02/28 07:40:17;;;;;;;13.23;8.47;;;1.70;99.90;;;;;;5046009;28;20038;-86
2023/02/28 07:42:44;;;;;;;19.47;12.87;;;1.60;99.90;;;;;;5012894;28;20453;-88
2023/02/28 07:45:11;;;;;;;10.90;8.47;;;1.70;99.90;;;;;;5012671;28;20041;-86
2023/02/28 07:47:38;;;;;;;28.67;9.70;;;1.70;99.90;;;;;;5030143;28;20038;-88
2023/02/28 07:50:06;;;;;;;14.17;7.93;;;1.70;99.90;;;;;;5007918;28;20491;-86
2023/02/28 07:52:32;;;;;;;15.63;10.50;;;1.70;99.90;;;;;;5023895;28;20049;-86
2023/02/28 07:54:58;;;;;;;22.47;10.03;;;1.80;99.90;;;;;;5025800;28;20026;-87
2023/02/28 07:57:25;;;;;;;17.20;11.33;;;2.10;99.90;;;;;;5026488;28;20027;-86
2023/02/28 07:59:51;;;;;;;19.43;11.33;;;2.30;99.90;;;;;;5020734;28;20041;-86
2023/02/28 08:02:17;;;;;;;18.93;11.83;;;2.20;99.90;;;;;;5013564;28;20042;-87
2023/02/28 08:04:44;;;;;;;16.07;10.03;;;2.40;99.90;;;;;;5032109;28;20038;-90
2023/02/28 08:07:12;;;;;;;18.47;12.53;;;2.70;99.90;;;;;;4994085;28;20057;-90
2023/02/28 08:09:39;;;;;;;16.07;11.27;;;3.00;99.90;;;;;;4977860;28;20057;-91
2023/02/28 08:12:07;;;;;;;7.37;6.27;;;3.00;99.90;;;;;;5002338;28;20041;-88
2023/02/28 08:14:33;;;;;;;15.10;9.90;;;3.10;99.90;;;;;;5045938;28;20022;-86
2023/02/28 08:16:59;;;;;;;12.87;8.17;;;3.10;99.90;;;;;;5044902;28;20509;-87
2023/02/28 08:19:25;;;;;;;13.37;9.67;;;3.30;99.90;;;;;;5013991;28;20053;-88
2023/02/28 08:21:51;;;;;;;10.33;7.70;;;3.40;99.90;;;;;;5028540;28;20042;-91
2023/02/28 08:24:17;;;;;;;18.57;9.73;;;3.30;99.90;;;;;;5048881;28;20042;-88
2023/02/28 08:26:43;;;;;;;13.30;10.43;;;3.40;99.90;;;;;;5033648;28;20030;-89
2023/02/28 08:29:10;;;;;;;11.00;8.07;;;3.50;99.90;;;;;;5018299;28;20475;-88
2023/02/28 08:31:36;;;;;;;14.03;10.13;;;3.50;99.90;;;;;;5019421;28;20038;-88
2023/02/28 08:34:06;;;;;;;18.93;9.90;;;3.60;99.90;;;;;;5042287;28;20060;-87
2023/02/28 08:36:32;;;;;;;14.38;11.00;;;3.80;99.90;;;;;;5021485;28;20498;-88
2023/02/28 08:38:59;;;;;;;11.80;9.63;;;3.70;99.90;;;;;;5022426;28;20030;-89
2023/02/28 08:41:25;;;;;;;12.97;9.93;;;3.80;99.90;;;;;;4993956;28;20460;-89
2023/02/28 08:43:52;;;;;;;15.43;10.03;;;4.00;99.90;;;;;;4992776;28;20054;-88
2023/02/28 08:46:18;;;;;;;16.77;8.20;;;4.30;99.90;;;;;;5008373;28;20485;-88
2023/02/28 08:48:44;;;;;;;13.00;10.17;;;4.40;99.90;;;;;;4992154;28;20049;-87
2023/02/28 08:51:12;;;;;;;9.90;8.00;;;4.40;99.90;;;;;;4993262;28;20033;-87
2023/02/28 08:53:39;;;;;;;7.67;6.57;;;4.40;99.90;;;;;;4996484;28;20045;-88
2023/02/28 08:56:16;;;;;;;10.70;8.73;;;4.50;99.90;;;;;;5027927;28;20038;-87
2023/02/28 08:58:42;;;;;;;7.07;6.27;;;4.60;99.90;;;;;;5034920;28;20022;-87
2023/02/28 09:01:29;;;;;;;11.03;8.47;;;4.80;99.90;;;;;;5008177;28;20510;-90
2023/02/28 09:03:55;;;;;;;8.50;7.43;;;4.80;99.90;;;;;;5000523;28;20057;-89
2023/02/28 09:06:23;;;;;;;11.23;9.63;;;4.90;99.90;;;;;;5028233;28;20459;-87
2023/02/28 09:08:49;;;;;;;12.83;8.77;;;4.90;99.90;;;;;;5026982;28;20045;-89
2023/02/28 09:11:15;;;;;;;13.13;9.67;;;5.00;99.90;;;;;;5044678;28;20367;-86
2023/02/28 09:13:41;;;;;;;12.10;10.13;;;5.20;99.90;;;;;;5003167;28;20034;-92
2023/02/28 09:16:10;;;;;;;17.90;9.47;;;5.40;99.90;;;;;;5018539;28;20037;-90
2023/02/28 09:18:37;;;;;;;15.00;9.23;;;5.60;99.90;;;;;;5006739;28;20046;-89
2023/02/28 09:21:07;;;;;;;16.03;8.40;;;5.60;99.90;;;;;;4991313;28;20049;-88
2023/02/28 09:23:33;;;;;;;9.43;7.73;;;5.60;99.90;;;;;;5011817;28;20049;-78
2023/02/28 09:25:59;;;;;;;6.80;5.43;;;5.50;99.90;;;;;;5036748;28;20034;-78
2023/02/28 09:28:25;;;;;;;9.03;7.30;;;5.40;99.90;;;;;;5007959;28;20046;-86
2023/02/28 09:30:52;;;;;;;10.00;8.90;;;5.20;99.90;;;;;;5007403;28;20480;-78
2023/02/28 09:33:22;;;;;;;9.17;7.37;;;5.10;99.90;;;;;;5007564;28;20080;-79
2023/02/28 09:35:48;;;;;;;12.37;9.03;;;5.00;99.90;;;;;;5044623;28;20029;-79
2023/02/28 09:38:15;;;;;;;9.87;8.87;;;5.10;99.90;;;;;;5001209;28;20027;-78
2023/02/28 09:40:49;;;;;;;7.13;5.73;;;5.30;99.90;;;;;;4996684;28;20057;-77
2023/02/28 09:43:17;;;;;;;6.07;5.47;;;5.20;99.90;;;;;;5038445;28;20042;-77
2023/02/28 09:45:47;;;;;;;7.07;6.43;;;5.20;99.90;;;;;;5016205;28;20038;-78
2023/02/28 09:48:19;;;;;;;12.80;7.70;;;5.20;99.90;;;;;;5012653;28;20029;-77
2023/02/28 09:50:50;;;;;;;8.00;5.37;;;5.10;99.90;;;;;;5026482;28;20034;-78
2023/02/28 09:53:34;;;;;;;7.10;6.28;;;5.30;99.90;;;;;;5011036;28;20045;-78
2023/02/28 09:56:01;;;;;;;7.20;6.53;;;5.40;99.90;;;;;;5042649;28;20391;-80
2023/02/28 09:58:32;;;;;;;9.63;7.53;;;5.50;99.90;;;;;;5003694;28;20033;-80
2023/02/28 10:01:01;;;;;;;;;;;5.70;99.90;;;;;;5009920;28;20402;-79
2023/02/28 10:03:38;;;;;;;6.30;5.80;;;5.70;99.90;;;;;;5030631;28;19925;-79
2023/02/28 10:06:14;;;;;;;7.87;7.07;;;5.60;99.90;;;;;;5034893;28;20030;-78
2023/02/28 10:08:46;;;;;;;7.80;5.10;;;5.60;99.90;;;;;;5031889;28;20041;-79
2023/02/28 10:11:15;;;;;;;6.97;6.30;;;5.80;99.90;;;;;;5046847;28;20464;-78
2023/02/28 10:13:46;;;;;;;7.97;7.10;;;5.70;99.90;;;;;;4999672;28;20026;-79
2023/02/28 10:16:15;;;;;;;8.45;7.45;;;5.80;99.90;;;;;;5020518;28;20029;-79
2023/02/28 10:18:47;;;;;;;6.97;6.37;;;6.00;99.90;;;;;;5022686;28;20034;-80
2023/02/28 10:21:38;;;;;;;9.60;8.10;;;6.20;99.90;;;;;;5035918;28;20041;-79
2023/02/28 10:24:35;;;;;;;5.65;5.25;;;6.40;99.90;;;;;;5025637;28;20491;-79
2023/02/28 10:27:12;;;;;;;6.30;5.73;;;6.20;98.40;;;;;;5030940;28;20399;-79
2023/02/28 10:29:38;;;;;;;7.63;5.97;;;6.20;98.50;;;;;;5043380;28;20022;-80
2023/02/28 10:32:04;;;;;;;7.63;6.93;;;6.10;98.60;;;;;;5033878;28;20040;-80
2023/02/28 10:34:30;;;;;;;8.30;6.73;;;6.20;97.90;;;;;;5025204;28;20033;-80
2023/02/28 10:37:06;;;;;;;9.77;8.03;;;6.30;97.50;;;;;;5030947;28;20386;-81
2023/02/28 10:39:40;;;;;;;6.10;5.70;;;6.60;99.20;;;;;;5026056;28;20034;-80
2023/02/28 10:42:19;;;;;;;8.03;7.20;;;6.60;96.40;;;;;;5009119;28;20361;-83
2023/02/28 10:44:45;;;;;;;9.03;7.50;;;6.60;97.00;;;;;;4995721;28;20050;-79
2023/02/28 10:47:16;;;;;;;7.40;5.67;;;6.70;96.40;;;;;;5012801;28;20026;-79
2023/02/28 10:49:47;;;;;;;11.70;7.50;;;6.80;96.10;;;;;;5030402;28;20033;-78
2023/02/28 10:52:14;;;;;;;4.47;4.17;;;6.90;96.10;;;;;;5027047;28;20510;-77
2023/02/28 10:54:40;;;;;;;6.20;5.73;;;6.70;95.50;;;;;;5027483;28;20045;-78
2023/02/28 10:57:17;;;;;;;5.93;5.33;;;6.40;95.90;;;;;;5010649;28;20033;-78
2023/02/28 10:59:44;;;;;;;8.57;7.50;;;6.40;95.70;;;;;;4996149;28;20042;-79
2023/02/28 11:02:34;;;;;;;9.60;6.53;;;6.60;96.50;;;;;;5007236;28;20057;-78
2023/02/28 11:05:00;;;;;;;7.57;5.83;;;6.70;95.70;;;;;;5001226;28;20049;-80
2023/02/28 11:07:27;;;;;;;5.93;5.43;;;6.80;95.10;;;;;;5011136;28;20042;-80
2023/02/28 11:09:57;;;;;;;6.77;6.20;;;6.60;94.70;;;;;;5026997;28;20365;-82
2023/02/28 11:12:37;;;;;;;7.37;6.67;;;6.40;95.20;;;;;;5029965;28;20029;-80
2023/02/28 11:15:25;;;;;;;5.80;5.27;;;6.50;95.30;;;;;;5044290;28;20034;-80
2023/02/28 11:18:01;;;;;;;6.87;6.37;;;6.60;95.00;;;;;;5021278;28;20039;-79
2023/02/28 11:20:29;;;;;;;5.10;4.67;;;6.60;94.80;;;;;;5035919;28;20026;-78
2023/02/28 11:22:56;;;;;;;5.47;5.07;;;6.60;94.50;;;;;;5014194;28;20042;-79
2023/02/28 11:25:36;;;;;;;5.63;5.10;;;6.70;94.80;;;;;;5010284;28;20030;-81
2023/02/28 11:28:08;;;;;;;5.70;5.30;;;6.80;94.30;;;;;;5009630;28;20030;-79
2023/02/28 11:30:39;;;;;;;5.63;5.23;;;6.80;94.60;;;;;;5008760;28;20282;-79
2023/02/28 11:33:29;;;;;;;6.15;5.55;;;6.80;94.00;;;;;;5007959;28;20029;-79
2023/02/28 11:36:04;;;;;;;6.80;6.20;;;7.00;94.60;;;;;;5043848;28;20030;-79
2023/02/28 11:38:33;;;;;;;5.45;4.95;;;7.00;93.40;;;;;;5009890;28;20039;-79
2023/02/28 11:41:03;;;;;;;5.60;5.00;;;6.90;93.30;;;;;;5029836;28;20510;-78
2023/02/28 11:44:04;;;;;;;6.30;5.57;;;6.90;93.80;;;;;;5033868;28;20053;-80
2023/02/28 11:46:42;;;;;;;7.93;5.85;;;7.10;93.30;;;;;;5000858;28;20039;-79
2023/02/28 11:49:53;;;;;;;7.17;5.97;;;7.10;93.60;;;;;;5028166;28;20038;-79
2023/02/28 11:52:21;;;;;;;10.18;6.47;;;7.20;93.90;;;;;;5002024;28;20038;-79
2023/02/28 11:54:47;;;;;;;6.63;5.80;;;7.30;93.50;;;;;;4972095;28;20496;-79
2023/02/28 11:57:29;;;;;;;6.28;5.78;;;7.40;93.10;;;;;;4979847;28;20034;-79
2023/02/28 12:00:00;;;;;;;5.55;5.07;;;7.40;93.00;;;;;;4989338;28;20050;-79
2023/02/28 12:02:33;;;;;;;6.20;5.70;;;7.30;93.20;;;;;;5006980;28;20041;-79
2023/02/28 12:05:19;;;;;;;8.70;7.07;;;7.30;93.40;;;;;;5004648;28;20047;-79
2023/02/28 12:07:54;;;;;;;6.28;5.78;;;7.30;93.30;;;;;;5007190;28;20047;-79
2023/02/28 12:10:31;;;;;;;7.43;6.72;;;7.40;92.50;;;;;;4990018;28;20030;-81
2023/02/28 12:13:21;;;;;;;8.30;6.57;;;7.40;92.20;;;;;;4969095;28;20042;-81
2023/02/28 12:15:50;;;;;;;10.45;5.82;;;7.60;92.50;;;;;;4987612;28;20041;-78
2023/02/28 12:18:27;;;;;;;5.00;4.65;;;7.70;91.80;;;;;;4990807;28;20126;-79
2023/02/28 12:21:38;;;;;;;7.38;6.75;;;7.50;91.40;;;;;;4987161;28;20038;-79
2023/02/28 12:24:04;;;;;;;5.53;5.18;;;7.60;92.00;;;;;;4937535;29;20085;-79
2023/02/28 12:26:40;;;;;;;6.10;5.60;;;7.70;90.80;;;;;;4929344;29;20035;-79
2023/02/28 12:29:35;;;;;;;6.65;6.15;;;7.40;90.90;;;;;;4917615;29;20043;-78
2023/02/28 12:32:15;;;;;;;7.15;6.45;;;7.50;91.30;;;;;;4922645;28;20398;-81
2023/02/28 12:35:08;;;;;;;7.45;6.80;;;7.70;91.20;;;;;;4935566;29;20493;-83
2023/02/28 12:37:49;;;;;;;7.97;7.20;;;7.90;91.30;;;;;;4938084;29;20038;-81
2023/02/28 12:40:16;;;;;;;8.18;7.47;;;8.00;91.40;;;;;;4924479;29;20050;-81
2023/02/28 12:42:47;;;;;;;6.40;5.90;;;8.10;91.00;;;;;;4902231;29;20185;-81
2023/02/28 12:45:24;;;;;;;6.97;6.47;;;8.20;91.40;;;;;;4898990;29;20043;-80
2023/02/28 12:47:59;;;;;;;6.43;5.93;;;8.00;90.70;;;;;;4936747;29;20053;-80
2023/02/28 12:50:26;;;;;;;6.00;5.50;;;7.90;90.70;;;;;;4931224;29;20032;-80
2023/02/28 12:53:05;;;;;;;7.38;6.68;;;7.80;90.20;;;;;;4904866;29;20480;-80
2023/02/28 12:55:52;;;;;;;8.63;7.88;;;7.90;90.50;;;;;;4901182;29;20063;-81
2023/02/28 12:58:42;;;;;;;7.43;6.82;;;7.90;90.30;;;;;;4917526;29;20043;-80
2023/02/28 13:01:11;;;;;;;9.45;7.80;;;8.10;90.60;;;;;;4950890;28;20035;-80
2023/02/28 13:03:37;;;;;;;5.85;5.45;;;8.30;90.90;;;;;;4971363;28;20046;-80
2023/02/28 13:06:29;;;;;;;8.82;7.25;;;8.30;90.00;;;;;;4967539;28;20038;-80